createdAt,value
2022-10-31T00:00:31.494Z,46.30
2022-10-31T00:02:58.519Z,39.10
2022-10-31T00:05:25.280Z,38.35
2022-10-31T00:07:54.624Z,40.25
2022-10-31T00:10:21.149Z,44.00
2022-10-31T00:12:47.784Z,43.28
2022-10-31T00:15:14.391Z,51.92
2022-10-31T00:17:40.993Z,47.88
2022-10-31T00:20:08.044Z,50.97
2022-10-31T00:22:34.641Z,44.83
2022-10-31T00:25:01.104Z,44.47
2022-10-31T00:29:58.579Z,44.72
2022-10-31T00:32:25.167Z,41.88
2022-10-31T00:34:51.653Z,53.45
2022-10-31T00:37:18.675Z,40.05
2022-10-31T00:39:46.183Z,51.30
2022-10-31T00:42:12.770Z,41.13
2022-10-31T00:44:42.890Z,52.53
2022-10-31T00:47:09.446Z,41.53
2022-10-31T00:49:36.006Z,49.28
2022-10-31T00:52:02.707Z,56.08
2022-10-31T00:54:29.281Z,56.47
2022-10-31T00:56:55.821Z,44.75
2022-10-31T00:59:23.366Z,58.80
2022-10-31T01:04:35.562Z,61.40
2022-10-31T01:07:02.182Z,58.47
2022-10-31T01:09:28.817Z,50.45
2022-10-31T01:11:55.458Z,46.22
2022-10-31T01:14:24.615Z,55.83
2022-10-31T01:16:51.159Z,50.17
2022-10-31T01:19:17.815Z,47.90
2022-10-31T01:21:44.366Z,48.38
2022-10-31T01:24:10.884Z,49.45
2022-10-31T01:26:38.985Z,48.80
2022-10-31T01:29:08.613Z,48.53
2022-10-31T01:31:38.378Z,59.20
2022-10-31T01:34:05.559Z,48.83
2022-10-31T01:36:34.822Z,54.75
2022-10-31T01:39:07.878Z,49.58
2022-10-31T01:41:37.365Z,54.20
2022-10-31T01:44:24.250Z,57.47
2022-10-31T01:46:50.799Z,53.20
2022-10-31T01:49:42.679Z,54.13
2022-10-31T01:52:19.728Z,70.57
2022-10-31T01:54:58.568Z,53.65
2022-10-31T01:57:27.193Z,54.88
2022-10-31T01:59:58.719Z,55.45
2022-10-31T02:02:26.554Z,47.97
2022-10-31T02:04:54.348Z,48.72
2022-10-31T02:07:33.619Z,53.17
2022-10-31T02:10:02.634Z,50.10
2022-10-31T02:12:32.326Z,62.55
2022-10-31T02:15:01.347Z,49.97
2022-10-31T02:17:30.307Z,54.35
2022-10-31T02:20:08.543Z,56.25
2022-10-31T02:22:35.026Z,54.22
2022-10-31T02:25:32.413Z,80.75
2022-10-31T02:28:20.734Z,56.50
2022-10-31T02:31:30.458Z,64.80
2022-10-31T02:34:03.908Z,60.42
2022-10-31T02:36:41.610Z,55.58
2022-10-31T02:39:13.505Z,66.28
2022-10-31T02:42:07.756Z,57.17
2022-10-31T02:44:40.665Z,52.47
2022-10-31T02:47:12.989Z,54.25
2022-10-31T02:49:43.990Z,52.05
2022-10-31T02:52:27.457Z,55.75
2022-10-31T02:55:11.883Z,60.78
2022-10-31T02:57:40.836Z,52.75
2022-10-31T03:00:09.497Z,52.70
2022-10-31T03:02:54.984Z,58.75
2022-10-31T03:05:39.984Z,52.97
2022-10-31T03:08:36.010Z,62.28
2022-10-31T03:11:08.963Z,59.67
2022-10-31T03:13:35.681Z,67.70
2022-10-31T03:16:35.275Z,59.65
2022-10-31T03:19:07.238Z,55.95
2022-10-31T03:21:36.999Z,57.78
2022-10-31T03:24:07.156Z,59.20
2022-10-31T03:26:39.031Z,64.97
2022-10-31T03:29:12.139Z,52.20
2022-10-31T03:31:58.239Z,60.35
2022-10-31T03:34:25.088Z,48.25
2022-10-31T03:36:55.711Z,56.58
2022-10-31T03:39:24.394Z,52.45
2022-10-31T03:44:12.002Z,56.60
2022-10-31T03:46:41.218Z,51.47
2022-10-31T03:49:07.808Z,57.53
2022-10-31T03:51:49.871Z,62.65
2022-10-31T03:54:32.792Z,64.57
2022-10-31T03:57:08.170Z,67.22
2022-10-31T03:59:43.414Z,56.83
2022-10-31T04:02:16.439Z,55.00
2022-10-31T04:04:46.468Z,61.25
2022-10-31T04:07:14.478Z,73.68
2022-10-31T04:09:45.086Z,59.47
2022-10-31T04:12:16.493Z,52.67
2022-10-31T04:15:03.711Z,60.22
2022-10-31T04:17:33.711Z,60.63
2022-10-31T04:20:01.547Z,53.13
2022-10-31T04:22:29.112Z,57.95
2022-10-31T04:24:55.654Z,63.03
2022-10-31T04:27:22.239Z,66.35
2022-10-31T04:29:50.857Z,50.10
2022-10-31T04:32:18.556Z,59.35
2022-10-31T04:34:45.098Z,67.50
2022-10-31T04:37:12.173Z,66.30
2022-10-31T04:39:39.244Z,54.08
2022-10-31T04:42:25.751Z,49.90
2022-10-31T04:44:52.666Z,71.22
2022-10-31T04:47:19.303Z,56.92
2022-10-31T04:49:45.993Z,60.63
2022-10-31T04:52:13.577Z,55.72
2022-10-31T04:54:40.900Z,55.33
2022-10-31T04:57:47.216Z,56.75
2022-10-31T05:00:17.325Z,59.17
2022-10-31T05:02:49.363Z,49.08
2022-10-31T05:05:18.110Z,53.20
2022-10-31T05:07:46.924Z,57.28
2022-10-31T05:10:17.504Z,53.13
2022-10-31T05:13:08.145Z,57.30
2022-10-31T05:16:10.186Z,52.65
2022-10-31T05:18:55.227Z,58.75
2022-10-31T05:21:57.165Z,59.80
2022-10-31T05:24:23.946Z,57.60
2022-10-31T05:26:50.754Z,52.95
2022-10-31T05:29:17.793Z,59.80
2022-10-31T05:31:44.334Z,61.25
2022-10-31T05:34:24.119Z,57.17
2022-10-31T05:37:13.822Z,59.55
2022-10-31T05:39:40.425Z,62.50
2022-10-31T05:42:13.429Z,58.28
2022-10-31T05:44:40.491Z,60.70
2022-10-31T05:47:34.890Z,62.33
2022-10-31T05:50:39.647Z,218.40
2022-10-31T05:53:10.127Z,155.52
2022-10-31T05:55:38.387Z,125.28
2022-10-31T05:58:13.977Z,76.32
2022-10-31T06:00:47.962Z,67.63
2022-10-31T06:03:15.676Z,56.88
2022-10-31T06:06:02.591Z,69.53
2022-10-31T06:11:02.558Z,57.70
2022-10-31T06:13:49.074Z,62.67
2022-10-31T06:16:20.967Z,61.25
2022-10-31T06:18:49.622Z,62.88
2022-10-31T06:21:18.894Z,340.63
2022-10-31T06:23:48.058Z,68.25
2022-10-31T06:26:27.211Z,72.80
2022-10-31T06:28:53.961Z,66.90
2022-10-31T06:31:37.086Z,70.65
2022-10-31T06:34:03.722Z,103.07
2022-10-31T06:36:30.306Z,65.85
2022-10-31T06:38:56.884Z,192.00
2022-10-31T06:41:24.598Z,94.55
2022-10-31T06:43:52.558Z,72.22
2022-10-31T06:46:37.476Z,85.05
2022-10-31T06:49:33.295Z,69.03
2022-10-31T06:52:03.117Z,65.15
2022-10-31T06:54:29.748Z,71.68
2022-10-31T06:56:56.955Z,62.15
2022-10-31T06:59:25.275Z,45.35
2022-10-31T07:02:15.295Z,63.13
2022-10-31T07:04:43.451Z,60.55
2022-10-31T07:07:13.802Z,48.42
2022-10-31T07:09:40.585Z,50.10
2022-10-31T07:12:09.688Z,37.30
2022-10-31T07:14:39.245Z,30.02
2022-10-31T07:17:06.636Z,34.67
2022-10-31T07:19:37.681Z,33.97
2022-10-31T07:22:04.279Z,28.67
2022-10-31T07:24:32.124Z,43.95
2022-10-31T07:29:51.922Z,38.75
2022-10-31T07:32:18.503Z,106.50
2022-10-31T07:34:55.086Z,362.35
2022-10-31T07:37:28.596Z,229.60
2022-10-31T07:39:56.377Z,183.85
2022-10-31T07:42:23.931Z,313.65
2022-10-31T07:44:52.709Z,130.88
2022-10-31T07:48:00.237Z,70.63
2022-10-31T07:50:49.890Z,90.65
2022-10-31T07:53:35.151Z,85.50
2022-10-31T07:56:12.011Z,43.85
2022-10-31T07:58:38.692Z,40.38
2022-10-31T08:01:05.557Z,162.98
2022-10-31T08:03:40.656Z,43.08
2022-10-31T08:06:10.099Z,51.60
2022-10-31T08:09:02.916Z,102.32
2022-10-31T08:11:31.107Z,62.40
2022-10-31T08:13:58.580Z,30.42
2022-10-31T08:16:25.205Z,19.98
2022-10-31T08:18:59.658Z,18.95
2022-10-31T08:21:28.684Z,24.92
2022-10-31T08:23:55.246Z,30.02
2022-10-31T08:26:24.377Z,21.52
2022-10-31T08:28:55.532Z,22.58
2022-10-31T08:34:19.048Z,32.50
2022-10-31T08:37:04.215Z,22.65
2022-10-31T08:39:39.637Z,22.92
2022-10-31T08:42:06.910Z,24.77
2022-10-31T08:44:33.443Z,23.33
2022-10-31T08:47:00.063Z,28.15
2022-10-31T08:49:26.570Z,24.25
2022-10-31T08:51:53.170Z,27.23
2022-10-31T08:54:21.883Z,22.08
2022-10-31T08:56:56.294Z,20.38
2022-10-31T08:59:42.777Z,20.38
2022-10-31T09:02:25.523Z,21.35
2022-10-31T09:04:57.221Z,14.65
2022-10-31T09:07:23.791Z,21.88
2022-10-31T09:09:50.409Z,24.40
2022-10-31T09:12:18.915Z,22.40
2022-10-31T09:15:07.408Z,17.58
2022-10-31T09:17:54.816Z,21.20
2022-10-31T09:20:29.953Z,23.45
2022-10-31T09:22:59.768Z,19.73
2022-10-31T09:25:27.114Z,17.90
2022-10-31T09:28:15.556Z,20.30
2022-10-31T09:30:43.787Z,18.05
2022-10-31T09:33:12.432Z,19.58
2022-10-31T09:35:43.893Z,14.38
2022-10-31T09:38:20.110Z,24.30
2022-10-31T09:41:15.299Z,16.38
2022-10-31T09:44:00.194Z,19.65
2022-10-31T09:49:14.889Z,21.95
2022-10-31T09:56:33.333Z,17.40
2022-10-31T09:59:03.173Z,18.27
2022-10-31T10:01:35.598Z,19.88
2022-10-31T10:04:10.819Z,20.95
2022-10-31T10:07:27.726Z,21.73
2022-10-31T10:10:50.294Z,17.15
2022-10-31T10:13:57.754Z,15.80
2022-10-31T10:17:01.615Z,25.67
2022-10-31T10:19:34.439Z,19.58
2022-10-31T10:22:36.111Z,23.58
2022-10-31T10:25:11.795Z,14.55
2022-10-31T10:27:50.306Z,15.57
2022-10-31T10:30:22.834Z,16.88
2022-10-31T10:32:57.172Z,15.25
2022-10-31T10:35:23.801Z,14.40
2022-10-31T10:37:56.140Z,15.75
2022-10-31T10:40:28.273Z,17.10
2022-10-31T10:43:20.351Z,15.50
2022-10-31T10:48:57.014Z,18.47
2022-10-31T10:54:55.364Z,22.83
2022-10-31T10:57:51.182Z,16.52
2022-10-31T11:00:35.281Z,20.85
2022-10-31T11:03:02.246Z,23.88
2022-10-31T11:05:54.557Z,19.63
2022-10-31T11:11:13.663Z,19.10
2022-10-31T11:13:43.111Z,16.85
2022-10-31T11:16:32.866Z,20.77
2022-10-31T11:19:10.877Z,16.83
2022-10-31T11:21:37.481Z,19.77
2022-10-31T11:24:14.232Z,18.00
2022-10-31T11:26:42.805Z,23.42
2022-10-31T11:29:26.110Z,14.77
2022-10-31T11:31:55.012Z,13.15
2022-10-31T11:34:33.090Z,19.20
2022-10-31T11:37:12.867Z,23.92
2022-10-31T11:39:44.501Z,24.60
2022-10-31T11:42:11.292Z,25.27
2022-10-31T11:44:43.334Z,18.60
2022-10-31T11:47:16.128Z,20.17
2022-10-31T11:49:44.796Z,18.80
2022-10-31T11:52:18.477Z,17.02
2022-10-31T11:55:00.347Z,15.93
2022-10-31T11:57:44.312Z,20.73
2022-10-31T12:00:41.811Z,17.10
2022-10-31T12:03:20.875Z,15.93
2022-10-31T12:05:53.064Z,20.33
2022-10-31T12:08:19.699Z,17.90
2022-10-31T12:10:48.559Z,17.83
2022-10-31T12:13:35.240Z,24.35
2022-10-31T12:16:06.489Z,14.52
2022-10-31T12:18:47.076Z,18.63
2022-10-31T12:21:41.072Z,19.52
2022-10-31T12:24:25.795Z,27.35
2022-10-31T12:27:24.798Z,25.10
2022-10-31T12:30:24.303Z,17.60
2022-10-31T12:33:29.735Z,21.70
2022-10-31T12:36:38.228Z,18.25
2022-10-31T12:39:34.947Z,16.25
2022-10-31T12:42:13.381Z,27.35
2022-10-31T12:44:54.553Z,23.15
2022-10-31T12:47:23.905Z,25.00
2022-10-31T12:50:21.883Z,24.75
2022-10-31T12:53:01.987Z,15.60
2022-10-31T12:55:53.700Z,20.85
2022-10-31T12:58:40.991Z,21.57
2022-10-31T13:01:17.896Z,26.98
2022-10-31T13:03:53.373Z,19.60
2022-10-31T13:06:28.735Z,22.63
2022-10-31T13:09:00.726Z,15.77
2022-10-31T13:11:51.192Z,22.23
2022-10-31T13:14:29.982Z,20.25
2022-10-31T13:16:57.918Z,22.48
2022-10-31T13:19:33.327Z,24.42
2022-10-31T13:22:11.576Z,21.45
2022-10-31T13:26:56.580Z,23.80
2022-10-31T13:29:31.810Z,25.25
2022-10-31T13:32:01.901Z,21.05
2022-10-31T13:34:34.796Z,28.80
2022-10-31T13:37:31.487Z,28.55
2022-10-31T13:40:08.007Z,28.88
2022-10-31T13:43:03.876Z,25.02
2022-10-31T13:45:30.670Z,22.88
2022-10-31T13:48:15.530Z,22.92
2022-10-31T13:50:44.089Z,17.13
2022-10-31T13:53:20.292Z,26.65
2022-10-31T13:55:49.557Z,27.20
2022-10-31T13:58:26.137Z,25.42
2022-10-31T14:01:08.781Z,33.58
2022-10-31T14:04:04.659Z,26.40
2022-10-31T14:06:36.943Z,34.33
2022-10-31T14:09:03.973Z,25.10
2022-10-31T14:11:34.527Z,25.15
2022-10-31T14:14:04.171Z,26.42
2022-10-31T14:16:33.221Z,26.00
2022-10-31T14:19:14.048Z,26.67
2022-10-31T14:21:47.824Z,22.75
2022-10-31T14:24:36.549Z,28.30
2022-10-31T14:27:24.755Z,35.20
2022-10-31T14:29:51.495Z,24.30
2022-10-31T14:32:28.935Z,28.73
2022-10-31T14:34:59.001Z,28.02
2022-10-31T14:37:44.827Z,30.38
2022-10-31T14:40:22.144Z,28.83
2022-10-31T14:43:27.007Z,26.77
2022-10-31T14:45:53.590Z,24.15
2022-10-31T14:48:55.346Z,35.60
2022-10-31T14:51:24.431Z,32.13
2022-10-31T14:53:56.339Z,28.88
2022-10-31T14:56:28.705Z,29.42
2022-10-31T15:01:24.044Z,26.85
2022-10-31T15:04:17.763Z,27.48
2022-10-31T15:06:45.108Z,27.33
2022-10-31T15:09:26.011Z,28.58
2022-10-31T15:11:52.783Z,26.15
2022-10-31T15:14:28.724Z,24.73
2022-10-31T15:16:58.380Z,33.72
2022-10-31T15:19:27.995Z,29.67
2022-10-31T15:21:56.750Z,38.95
2022-10-31T15:24:34.030Z,37.08
2022-10-31T15:27:04.852Z,26.10
2022-10-31T15:29:32.136Z,30.50
2022-10-31T15:32:01.650Z,27.20
2022-10-31T15:34:41.864Z,31.17
2022-10-31T15:37:17.067Z,28.70
2022-10-31T15:39:45.222Z,29.55
2022-10-31T15:42:37.815Z,25.13
2022-10-31T15:45:10.416Z,27.35
2022-10-31T15:47:37.820Z,22.15
2022-10-31T15:50:18.868Z,50.80
2022-10-31T15:52:49.087Z,172.10
2022-10-31T15:55:19.352Z,279.02
2022-10-31T15:57:52.196Z,232.80
2022-10-31T16:00:39.323Z,316.17
2022-10-31T16:03:14.793Z,162.93
2022-10-31T16:05:54.760Z,48.20
2022-10-31T16:10:45.774Z,94.25
2022-10-31T16:13:12.358Z,95.43
2022-10-31T16:15:38.955Z,132.52
2022-10-31T16:18:06.654Z,173.77
2022-10-31T16:20:38.642Z,245.57
2022-10-31T16:25:41.050Z,57.10
2022-10-31T16:28:17.411Z,41.95
2022-10-31T16:30:49.944Z,50.42
2022-10-31T16:33:37.063Z,71.82
2022-10-31T16:36:40.806Z,72.35
2022-10-31T16:39:08.493Z,51.20
2022-10-31T16:41:43.187Z,59.33
2022-10-31T16:44:19.207Z,52.38
2022-10-31T16:46:45.874Z,44.00
2022-10-31T16:49:12.819Z,56.72
2022-10-31T16:51:39.381Z,36.60
2022-10-31T16:54:05.983Z,53.80
2022-10-31T16:56:35.265Z,47.63
2022-10-31T16:59:05.386Z,50.45
2022-10-31T17:01:32.407Z,46.58
2022-10-31T17:03:59.134Z,50.67
2022-10-31T17:06:28.379Z,526.42
2022-10-31T17:08:55.338Z,508.90
2022-10-31T17:11:26.231Z,415.55
2022-10-31T17:13:53.975Z,341.70
2022-10-31T17:16:20.646Z,273.75
2022-10-31T17:18:47.934Z,239.68
2022-10-31T17:21:19.703Z,170.98
2022-10-31T17:23:46.640Z,129.13
2022-10-31T17:26:16.654Z,98.30
2022-10-31T17:28:43.302Z,90.00
2022-10-31T17:31:27.773Z,68.05
2022-10-31T17:34:02.447Z,58.45
2022-10-31T17:36:31.482Z,41.97
2022-10-31T17:38:58.093Z,56.38
2022-10-31T17:41:24.743Z,35.30
2022-10-31T17:43:57.980Z,34.92
2022-10-31T17:46:24.595Z,34.78
2022-10-31T17:48:51.139Z,40.93
2022-10-31T17:51:17.849Z,37.72
2022-10-31T17:53:45.718Z,34.85
2022-10-31T17:56:12.486Z,41.63
2022-10-31T17:58:39.160Z,39.38
2022-10-31T18:01:11.631Z,37.55
2022-10-31T18:03:39.317Z,39.33
2022-10-31T18:06:06.340Z,46.58
2022-10-31T18:08:35.551Z,40.35
2022-10-31T18:11:20.307Z,42.13
2022-10-31T18:13:46.942Z,39.53
2022-10-31T18:16:16.764Z,54.45
2022-10-31T18:18:43.374Z,59.35
2022-10-31T18:21:10.051Z,52.42
2022-10-31T18:23:36.827Z,50.58
2022-10-31T18:26:03.561Z,47.90
2022-10-31T18:28:30.274Z,50.60
2022-10-31T18:30:59.855Z,41.70
2022-10-31T18:33:26.448Z,52.13
2022-10-31T18:35:52.998Z,48.08
2022-10-31T18:38:19.691Z,45.60
2022-10-31T18:40:46.287Z,52.95
2022-10-31T18:43:13.041Z,53.10
2022-10-31T18:45:48.676Z,50.65
2022-10-31T18:48:17.227Z,45.78
2022-10-31T18:50:44.006Z,44.55
2022-10-31T18:53:10.818Z,48.53
2022-10-31T18:55:44.128Z,45.15
2022-10-31T18:58:14.194Z,57.20
2022-10-31T19:00:40.718Z,54.33
2022-10-31T19:03:07.310Z,64.63
2022-10-31T19:05:33.900Z,65.95
2022-10-31T19:08:00.478Z,56.97
2022-10-31T19:10:27.045Z,56.90
2022-10-31T19:12:53.622Z,63.50
2022-10-31T19:15:20.160Z,59.78
2022-10-31T19:17:47.212Z,75.78
2022-10-31T19:20:14.080Z,75.10
2022-10-31T19:22:40.655Z,77.75
2022-10-31T19:25:10.515Z,60.83
2022-10-31T19:27:39.094Z,58.30
2022-10-31T19:30:06.870Z,59.33
2022-10-31T19:32:33.574Z,66.72
2022-10-31T19:35:00.415Z,78.38
2022-10-31T19:37:27.108Z,76.60
2022-10-31T19:39:53.648Z,97.57
2022-10-31T19:42:20.447Z,90.68
2022-10-31T19:44:46.947Z,78.05
2022-10-31T19:47:13.607Z,67.93
2022-10-31T19:49:40.090Z,77.65
2022-10-31T19:52:06.739Z,87.97
2022-10-31T19:54:33.719Z,72.13
2022-10-31T19:57:00.354Z,79.03
2022-10-31T19:59:26.905Z,89.90
2022-10-31T20:01:53.963Z,99.10
2022-10-31T20:04:20.598Z,112.47
2022-10-31T20:06:47.189Z,110.25
2022-10-31T20:09:14.831Z,127.40
2022-10-31T20:11:43.607Z,128.20
2022-10-31T20:14:13.013Z,117.15
2022-10-31T20:16:39.858Z,111.35
2022-10-31T20:19:06.462Z,118.10
2022-10-31T20:21:38.288Z,116.47
2022-10-31T20:24:07.763Z,127.70
2022-10-31T20:26:35.359Z,137.23
2022-10-31T20:29:02.298Z,99.55
2022-10-31T20:31:32.701Z,89.32
2022-10-31T20:33:59.355Z,93.93
2022-10-31T20:36:25.920Z,84.38
2022-10-31T20:38:52.694Z,89.63
2022-10-31T20:41:19.665Z,92.10
2022-10-31T20:43:46.609Z,83.18
2022-10-31T20:46:16.225Z,81.13
2022-10-31T20:48:43.045Z,103.50
2022-10-31T20:51:21.577Z,100.65
2022-10-31T20:53:50.348Z,115.47
2022-10-31T20:56:19.736Z,114.97
2022-10-31T20:58:46.766Z,112.72
2022-10-31T21:01:15.932Z,120.53
2022-10-31T21:03:42.743Z,113.57
2022-10-31T21:06:10.196Z,111.88
2022-10-31T21:08:37.667Z,86.78
2022-10-31T21:11:12.683Z,73.03
2022-10-31T21:13:41.595Z,84.90
2022-10-31T21:16:11.067Z,85.82
2022-10-31T21:18:39.594Z,79.00
2022-10-31T21:21:11.043Z,76.68
2022-10-31T21:23:38.161Z,85.38
2022-10-31T21:26:09.524Z,82.47
2022-10-31T21:28:36.228Z,75.90
2022-10-31T21:31:10.524Z,83.80
2022-10-31T21:33:38.215Z,97.80
2022-10-31T21:36:06.059Z,86.35
2022-10-31T21:38:33.558Z,84.38
2022-10-31T21:41:05.644Z,97.32
2022-10-31T21:46:28.735Z,91.60
2022-10-31T21:48:56.075Z,88.22
2022-10-31T21:51:25.333Z,96.40
2022-10-31T21:54:11.678Z,103.68
2022-10-31T21:56:38.830Z,93.13
2022-10-31T21:59:06.145Z,101.55
2022-10-31T22:01:33.504Z,110.13
2022-10-31T22:04:00.684Z,113.43
2022-10-31T22:06:30.113Z,135.45
2022-10-31T22:08:59.536Z,128.95
2022-10-31T22:11:27.965Z,128.32
2022-10-31T22:13:55.086Z,125.57
2022-10-31T22:16:23.763Z,115.97
2022-10-31T22:18:55.436Z,110.18
2022-10-31T22:21:24.311Z,114.43
2022-10-31T22:23:52.537Z,101.28
2022-10-31T22:26:19.445Z,122.10
2022-10-31T22:28:55.851Z,118.78
2022-10-31T22:31:24.305Z,134.48
2022-10-31T22:33:52.243Z,111.75
2022-10-31T22:36:21.221Z,112.57
2022-10-31T22:38:48.577Z,98.82
2022-10-31T22:41:18.116Z,111.65
2022-10-31T22:43:45.570Z,113.35
2022-10-31T22:46:18.107Z,93.65
2022-10-31T22:48:47.531Z,110.03
2022-10-31T22:51:16.700Z,99.05
2022-10-31T22:53:44.450Z,99.60
2022-10-31T22:56:15.227Z,147.00
2022-10-31T22:58:42.320Z,137.18
2022-10-31T23:01:15.014Z,163.32
2022-10-31T23:03:41.789Z,131.13
2022-10-31T23:06:12.427Z,113.07
2022-10-31T23:08:39.606Z,124.97
2022-10-31T23:11:24.827Z,116.88
2022-10-31T23:14:09.405Z,111.50
2022-10-31T23:16:54.434Z,122.00
2022-10-31T23:19:29.585Z,137.73
2022-10-31T23:22:02.173Z,128.82
2022-10-31T23:24:40.999Z,136.38
2022-10-31T23:27:10.464Z,142.35
2022-10-31T23:29:38.617Z,129.55
2022-10-31T23:32:08.214Z,116.85
2022-10-31T23:34:35.100Z,120.68
2022-10-31T23:37:01.830Z,129.32
2022-10-31T23:39:28.638Z,123.07
2022-10-31T23:41:55.631Z,114.80
2022-10-31T23:44:22.285Z,112.60
2022-10-31T23:46:48.843Z,121.10
2022-10-31T23:49:15.510Z,119.35
2022-10-31T23:51:42.113Z,124.03
2022-10-31T23:54:08.870Z,117.10
2022-10-31T23:56:35.804Z,104.93
2022-10-31T23:59:02.915Z,105.45
